Time;durP1;ratioP1;P1;durP2;ratioP2;P2;SDS_P1;SDS_P2;PMS_P1;PMS_P2;Temp;Humidity;BMP_temperature;BMP_pressure;BME280_temperature;BME280_humidity;BME280_pressure;Samples;Min_cycle;Max_cycle;Signal;HPM_P1;HPM_P2
2022/11/19 00:01:11;;;;;;;11.43;7.55;;;0.80;53.30;;;-0.97;58.82;100968.19;12173866;19;20884;-81
2022/11/19 00:05:13;;;;;;;11.90;7.57;;;1.00;53.40;;;-0.87;58.85;100994.63;12172499;19;20024;-81
2022/11/19 00:09:15;;;;;;;9.32;6.65;;;0.80;53.30;;;-0.99;58.79;100982.72;12190012;19;20018;-82
2022/11/19 00:13:17;;;;;;;9.98;6.70;;;1.00;53.40;;;-0.94;58.88;100997.22;12188407;19;20518;-81
2022/11/19 00:17:19;;;;;;;11.95;7.72;;;0.70;53.30;;;-1.07;58.73;100979.31;12191103;19;20018;-82
2022/11/19 00:21:21;;;;;;;11.30;7.68;;;0.70;53.30;;;-1.00;58.73;100999.81;12179123;19;21017;-82
2022/11/19 00:25:27;;;;;;;9.65;7.10;;;0.70;53.30;;;-1.04;58.94;100998.09;12177394;19;20035;-82
2022/11/19 00:29:29;;;;;;;13.65;8.15;;;0.60;53.20;;;-1.14;58.75;100986.16;12179393;19;20029;-82
2022/11/19 00:33:30;;;;;;;12.63;9.10;;;0.60;53.30;;;-1.09;58.71;101002.38;12182948;19;20125;-81
2022/11/19 00:37:32;;;;;;;14.05;8.23;;;0.60;53.40;;;-1.10;59.01;101007.53;12187085;19;20026;-81
2022/11/19 00:41:34;;;;;;;12.50;9.00;;;0.60;53.40;;;-1.21;58.68;100998.16;12183243;19;20018;-82
2022/11/19 00:45:35;;;;;;;12.25;8.40;;;0.50;53.30;;;-1.46;58.70;100971.75;12175972;19;20062;-82
2022/11/19 00:49:37;;;;;;;17.73;8.68;;;0.50;53.30;;;-1.18;58.85;101025.47;12177216;19;20018;-81
2022/11/19 00:53:39;;;;;;;13.02;8.07;;;0.80;53.40;;;-1.28;58.91;101010.97;12174065;19;20488;-82
2022/11/19 00:57:40;;;;;;;12.45;8.13;;;0.50;53.30;;;-1.35;58.74;101002.44;12195118;19;20624;-82
2022/11/19 01:01:42;;;;;;;10.75;7.90;;;0.70;53.40;;;-1.20;58.88;101029.75;12192322;19;20035;-81
2022/11/19 01:05:44;;;;;;;10.80;7.90;;;0.40;53.30;;;-1.56;58.88;100986.25;12182234;19;21242;-82
2022/11/19 01:09:46;;;;;;;14.10;7.68;;;0.40;53.30;;;-1.30;58.84;101025.47;12185176;19;20451;-82
2022/11/19 01:13:48;;;;;;;10.52;7.50;;;0.40;53.30;;;-1.28;58.87;101036.59;12179009;19;20010;-82
2022/11/19 01:17:49;;;;;;;12.05;7.75;;;0.40;53.30;;;-1.30;58.84;101030.59;12183486;19;20019;-82
2022/11/19 01:21:51;;;;;;;10.10;6.63;;;0.40;53.30;;;-1.55;58.77;100994.78;12180790;19;20411;-82
2022/11/19 01:25:53;;;;;;;9.82;6.88;;;0.30;53.20;;;-1.34;58.70;101035.75;12177598;19;20014;-82
2022/11/19 01:29:55;;;;;;;10.38;7.40;;;0.30;53.20;;;-1.37;58.89;101043.44;12180172;19;20046;-82
2022/11/19 01:33:58;;;;;;;8.65;6.07;;;0.60;53.30;;;-1.46;58.79;101022.97;12174593;19;20418;-81
2022/11/19 01:38:01;;;;;;;10.00;6.90;;;0.20;53.10;;;-1.59;58.87;101014.44;12179142;19;20014;-81
2022/11/19 01:42:04;;;;;;;10.32;7.43;;;0.40;53.30;;;-1.45;58.75;101034.91;12178301;19;20022;-81
2022/11/19 01:46:06;;;;;;;13.70;7.40;;;0.20;53.20;;;-1.74;58.70;100990.53;12176884;19;20014;-81
2022/11/19 01:50:08;;;;;;;11.38;6.68;;;0.20;53.20;;;-1.77;58.80;100993.94;12177268;19;20120;-81
2022/11/19 01:54:24;;;;;;;12.15;6.57;;;0.40;53.30;;;-1.59;58.86;101023.81;12171773;19;20807;-82
2022/11/19 01:58:25;;;;;;;11.35;7.35;;;0.20;53.20;;;-1.62;58.78;101039.16;12178898;19;20857;-81
2022/11/19 02:02:27;;;;;;;9.70;6.90;;;0.40;53.30;;;-1.63;58.82;101040.88;12175894;19;20014;-82
2022/11/19 02:06:32;;;;;;;11.23;6.40;;;0.10;53.10;;;-1.56;58.71;101059.66;12172862;19;20294;-81
2022/11/19 02:11:37;;;;;;;9.83;6.37;;;0.10;53.10;;;-1.61;58.72;101066.50;12178423;19;20026;-81
2022/11/19 02:15:57;;;;;;;11.40;6.07;;;0.10;53.10;;;-1.67;58.71;101061.38;12179144;19;20279;-82
2022/11/19 02:20:45;;;;;;;9.40;6.10;;;0.00;53.10;;;-1.86;58.84;101030.66;12182901;19;20745;-82
2022/11/19 02:24:55;;;;;;;11.48;7.60;;;0.00;53.10;;;-1.89;58.86;101025.53;12179972;19;20019;-82
2022/11/19 02:29:27;;;;;;;8.57;5.60;;;-0.10;53.00;;;-1.86;58.79;101056.25;12181256;19;20628;-81
2022/11/19 02:33:58;;;;;;;11.13;6.07;;;-0.10;53.00;;;-2.03;58.74;101027.19;12179510;19;20031;-82
2022/11/19 02:38:43;;;;;;;9.18;6.18;;;-0.10;53.00;;;-1.99;58.77;101051.94;12180265;19;20089;-82
2022/11/19 02:43:20;;;;;;;9.32;5.75;;;-0.20;53.10;;;-1.99;58.85;101046.00;12178980;19;20015;-81
2022/11/19 02:47:38;;;;;;;9.52;5.72;;;-0.20;53.20;;;-1.93;58.96;101069.03;12181680;19;20078;-82
2022/11/19 02:51:41;;;;;;;11.00;6.70;;;-0.30;53.20;;;-1.98;58.77;101056.22;12183682;19;20405;-82
2022/11/19 03:04:31;;;;;;;11.23;6.55;;;-0.30;53.10;;;-2.03;58.89;101057.91;12181720;19;20024;-82
2022/11/19 03:08:33;;;;;;;10.13;6.93;;;-0.30;53.20;;;-2.08;58.78;101049.34;12187424;19;20070;-82
2022/11/19 03:12:57;;;;;;;9.80;6.90;;;-0.30;53.20;;;-2.15;58.83;101040.00;12190468;19;20018;-82
2022/11/19 03:17:15;;;;;;;9.82;6.03;;;-0.30;53.00;;;-2.12;58.71;101043.41;12188240;19;20014;-82
2022/11/19 03:21:27;;;;;;;10.27;6.13;;;-0.40;53.00;;;-2.18;58.78;101034.88;12187652;19;20070;-82
2022/11/19 03:25:36;;;;;;;7.45;6.13;;;-0.40;53.10;;;-2.18;58.78;101037.44;12183487;19;20070;-81
2022/11/19 03:29:46;;;;;;;7.82;5.30;;;-0.20;53.20;;;-2.16;58.96;101041.69;12189247;19;20881;-82
2022/11/19 03:33:53;;;;;;;7.18;4.68;;;-0.20;53.20;;;-2.27;58.86;101039.13;12180032;19;20271;-81
2022/11/19 03:38:02;;;;;;;7.55;5.25;;;-0.40;53.10;;;-2.16;58.80;101063.84;12183327;19;20018;-81
2022/11/19 03:42:10;;;;;;;8.23;5.28;;;-0.20;53.20;;;-2.17;58.81;101067.25;12179256;19;20047;-81
2022/11/19 03:46:16;;;;;;;6.05;4.88;;;-0.20;53.20;;;-2.27;58.64;101063.81;12176758;19;20025;-80
2022/11/19 03:50:48;;;;;;;6.50;4.68;;;-0.50;53.40;;;-2.24;58.64;101077.47;12176050;19;20015;-81
2022/11/19 03:54:50;;;;;;;6.47;5.13;;;-0.50;53.00;;;-2.31;58.82;101073.19;12160166;19;20018;-81
2022/11/19 03:58:52;;;;;;;6.47;4.65;;;-0.50;53.10;;;-2.34;58.86;101078.28;12168891;19;20029;-81
2022/11/19 04:02:54;;;;;;;6.75;4.72;;;-0.50;53.10;;;-2.30;58.77;101079.16;12179468;19;20610;-82
2022/11/19 04:06:56;;;;;;;9.02;4.93;;;-0.50;53.20;;;-2.34;58.70;101062.94;12198291;19;20758;-81
2022/11/19 04:10:58;;;;;;;5.22;4.18;;;-0.50;53.20;;;-2.22;58.86;101080.03;12198911;19;20031;-82
2022/11/19 04:15:00;;;;;;;8.02;5.50;;;-0.50;53.20;;;-2.19;58.86;101081.75;12189805;19;20350;-81
2022/11/19 04:19:02;;;;;;;10.88;5.55;;;-0.50;53.20;;;-2.23;58.96;101091.13;12185894;19;20617;-82
2022/11/19 04:23:04;;;;;;;6.82;5.43;;;-0.50;53.20;;;-2.25;58.91;101082.59;12180047;19;20121;-81
2022/11/19 04:27:05;;;;;;;7.25;5.05;;;-0.50;53.20;;;-2.26;58.88;101086.00;12184583;19;20007;-81
2022/11/19 04:31:07;;;;;;;8.82;4.95;;;-0.50;53.10;;;-2.31;58.91;101088.53;12183673;19;20316;-82
2022/11/19 04:35:10;;;;;;;7.63;4.90;;;-0.60;53.10;;;-2.45;58.96;101067.19;12175780;19;20021;-82
2022/11/19 04:39:12;;;;;;;8.18;4.85;;;-0.60;53.10;;;-2.31;58.97;101085.13;12180383;19;20363;-81
2022/11/19 04:43:14;;;;;;;6.20;4.75;;;-0.40;53.20;;;-2.68;58.82;101011.69;12178840;19;20022;-82
2022/11/19 04:47:16;;;;;;;8.02;5.20;;;-0.60;53.10;;;-2.31;58.83;101078.31;12178826;19;20105;-82
2022/11/19 04:51:18;;;;;;;7.40;5.72;;;-0.60;53.20;;;-2.36;59.03;101059.53;12178415;19;20015;-81
2022/11/19 04:55:19;;;;;;;7.28;4.85;;;-0.50;53.20;;;-2.31;58.87;101080.00;12172970;19;20843;-81
2022/11/19 04:59:21;;;;;;;5.93;4.72;;;-0.50;53.20;;;-2.34;58.98;101062.94;12175264;19;20041;-81
2022/11/19 05:03:23;;;;;;;7.38;4.43;;;-0.60;53.20;;;-2.60;58.73;101018.53;12169557;19;20481;-82
2022/11/19 05:07:25;;;;;;;6.25;4.60;;;-0.60;53.20;;;-2.42;58.93;101049.28;12171427;19;20025;-81
2022/11/19 05:11:27;;;;;;;7.30;4.30;;;-0.60;53.20;;;-2.36;58.88;101054.41;12170837;19;20006;-81
2022/11/19 05:15:28;;;;;;;5.43;4.35;;;-0.60;53.20;;;-2.40;58.97;101037.38;12170411;19;20587;-81
2022/11/19 05:19:30;;;;;;;10.60;5.28;;;-0.30;53.40;;;-2.28;58.90;101055.28;12181354;19;20118;-81
2022/11/19 05:23:32;;;;;;;8.98;4.97;;;-0.50;53.30;;;-2.38;58.81;101030.53;12178583;19;20018;-82
2022/11/19 05:27:34;;;;;;;6.30;4.25;;;-0.20;53.40;;;-2.23;58.98;101056.16;12181596;19;20309;-82
2022/11/19 05:31:36;;;;;;;5.28;3.97;;;-0.50;53.30;;;-2.32;59.02;101051.03;12178976;19;20022;-81
2022/11/19 05:35:37;;;;;;;9.52;5.63;;;-0.40;53.30;;;-2.30;58.97;101046.75;12172042;19;20022;-81
2022/11/19 05:39:39;;;;;;;7.18;5.15;;;-0.20;53.40;;;-2.25;58.90;101051.88;12179711;19;20026;-81
2022/11/19 05:43:41;;;;;;;12.32;8.05;;;-0.40;53.30;;;-2.22;58.95;101073.19;12173750;19;20029;-81
2022/11/19 05:47:43;;;;;;;10.38;6.60;;;-0.50;53.20;;;-2.25;58.84;101068.09;12180440;19;20022;-81
2022/11/19 05:51:45;;;;;;;7.63;5.00;;;-0.40;53.30;;;-2.68;58.85;100995.50;12173502;19;20026;-82
2022/11/19 05:55:47;;;;;;;7.97;5.00;;;-0.50;53.20;;;-2.24;58.91;101071.53;12165471;19;20022;-82
2022/11/19 05:59:49;;;;;;;6.80;4.57;;;-0.50;53.20;;;-2.40;59.02;101050.16;12176656;19;20015;-82
2022/11/19 06:03:51;;;;;;;8.05;5.25;;;-0.50;53.20;;;-2.29;59.05;101062.97;12171039;19;20490;-82
2022/11/19 06:07:52;;;;;;;10.98;6.13;;;-0.50;53.20;;;-2.52;59.02;101037.31;12175123;19;20011;-81
2022/11/19 06:11:54;;;;;;;8.05;6.28;;;-0.50;53.20;;;-2.28;59.11;101078.31;12173103;19;20025;-81
2022/11/19 06:15:56;;;;;;;7.43;5.40;;;-0.50;53.20;;;-2.34;59.10;101074.88;12170980;19;20900;-81
2022/11/19 06:19:57;;;;;;;5.95;5.05;;;-0.30;53.20;;;-2.36;58.93;101074.88;12169721;19;20035;-82
2022/11/19 06:23:59;;;;;;;6.93;5.10;;;-0.50;53.20;;;-2.43;58.91;101062.94;12168088;19;20010;-82
2022/11/19 06:28:01;;;;;;;6.30;4.57;;;-0.30;53.30;;;-2.34;59.15;101082.56;12167597;19;20046;-82
2022/11/19 06:32:03;;;;;;;6.05;4.78;;;-0.30;53.30;;;-2.41;59.06;101062.94;12170268;19;20023;-82
2022/11/19 06:36:06;;;;;;;9.43;4.88;;;-0.60;53.20;;;-2.37;58.94;101062.94;12167762;19;20022;-82
2022/11/19 06:40:09;;;;;;;6.50;4.47;;;-0.60;53.20;;;-2.42;58.99;101059.53;12174831;19;20094;-82
2022/11/19 06:44:10;;;;;;;7.63;5.00;;;-0.60;53.20;;;-2.49;58.94;101042.44;12165361;19;20447;-82
2022/11/19 06:48:12;;;;;;;25.00;12.57;;;-0.60;53.20;;;-2.39;59.04;101058.69;12173186;19;20022;-82
2022/11/19 06:52:14;;;;;;;17.20;8.52;;;-0.60;53.30;;;-2.43;59.00;101056.94;12168106;19;20021;-82
2022/11/19 06:56:15;;;;;;;11.88;7.20;;;-0.60;53.30;;;-2.36;59.00;101064.66;12171354;19;20621;-82
2022/11/19 07:00:17;;;;;;;12.95;6.00;;;-0.60;53.30;;;-2.35;59.02;101070.59;12170442;19;20044;-82
2022/11/19 07:04:19;;;;;;;7.72;5.38;;;-0.60;53.30;;;-2.35;58.96;101068.94;12165531;19;20014;-82
2022/11/19 07:08:21;;;;;;;7.65;4.95;;;-0.60;53.30;;;-2.38;59.18;101066.34;12160617;19;20105;-82
2022/11/19 07:12:23;;;;;;;7.70;4.75;;;-0.60;53.30;;;-2.48;58.91;101051.84;12161852;19;21031;-83
2022/11/19 07:16:32;;;;;;;11.85;7.22;;;-0.60;53.30;;;-2.33;59.04;101072.31;12174146;19;20290;-82
2022/11/19 07:20:34;;;;;;;14.02;7.82;;;-0.30;53.40;;;-2.30;59.10;101080.00;12178641;19;20014;-82
2022/11/19 07:24:36;;;;;;;12.57;7.07;;;-0.50;53.40;;;-2.49;59.20;101042.44;12180492;19;20021;-83
2022/11/19 07:28:38;;;;;;;11.05;6.25;;;-0.50;53.50;;;-2.25;59.07;101080.03;12181088;19;20034;-82
2022/11/19 07:32:41;;;;;;;10.27;6.28;;;-0.50;53.50;;;-2.24;59.12;101080.03;12202611;19;20734;-83
2022/11/19 07:36:44;;;;;;;10.43;6.38;;;-0.40;53.60;;;-2.16;59.19;101069.84;12195033;19;20101;-82
2022/11/19 07:40:54;;;;;;;12.13;6.60;;;-0.40;53.70;;;-2.13;59.11;101062.16;12196044;19;20014;-83
2022/11/19 07:44:56;;;;;;;9.55;6.55;;;-0.30;53.70;;;-2.36;59.17;101022.88;12181052;19;20018;-83
2022/11/19 07:48:58;;;;;;;7.95;5.35;;;-0.30;53.80;;;-2.04;59.09;101062.16;12185021;19;20023;-82
2022/11/19 07:53:00;;;;;;;9.57;5.00;;;-0.20;53.90;;;-1.98;59.26;101066.44;12186105;19;20339;-84
2022/11/19 07:57:02;;;;;;;7.20;5.05;;;-0.20;54.00;;;-1.91;59.20;101067.31;12203859;19;20042;-83
2022/11/19 08:01:21;;;;;;;7.88;5.45;;;-0.10;54.10;;;-1.88;59.29;101068.16;12184682;19;20300;-83
2022/11/19 08:05:22;;;;;;;7.22;5.07;;;-0.10;54.10;;;-1.95;59.42;101043.41;12175494;19;20006;-83
2022/11/19 08:09:24;;;;;;;5.32;4.03;;;0.00;54.20;;;-1.89;59.46;101034.88;12180590;19;20014;-83
2022/11/19 08:13:26;;;;;;;7.05;4.95;;;0.00;54.30;;;-1.87;59.38;101034.03;12176961;19;20775;-83
2022/11/19 08:21:49;;;;;;;5.85;4.50;;;0.10;54.50;;;-1.64;59.48;101033.22;12180843;19;21025;-83
2022/11/19 08:25:51;;;;;;;5.10;4.55;;;0.20;54.60;;;-1.66;59.44;101007.59;12176945;19;20023;-81
2022/11/19 08:29:53;;;;;;;6.45;4.50;;;0.30;54.80;;;-1.52;59.56;101022.09;12184876;19;20025;-82
2022/11/19 08:33:55;;;;;;;6.80;5.13;;;0.40;54.90;;;-1.34;59.55;101040.88;12171637;19;20480;-84
2022/11/19 08:37:57;;;;;;;8.45;5.15;;;0.40;55.10;;;-1.29;59.64;101028.06;12168944;19;20443;-83
2022/11/19 08:46:19;;;;;;;6.70;4.20;;;0.60;55.20;;;-1.17;59.76;101009.22;12169106;19;20015;-82
2022/11/19 08:50:22;;;;;;;6.47;5.03;;;0.80;55.30;;;-1.12;59.79;100998.13;12167940;19;20011;-83
2022/11/19 08:54:24;;;;;;;4.43;3.95;;;1.00;55.40;;;-0.94;59.82;101020.28;12153041;19;20266;-84
2022/11/19 08:58:26;;;;;;;6.45;4.78;;;1.00;55.40;;;-0.83;59.73;101015.13;12157090;19;20276;-81
2022/11/19 09:02:28;;;;;;;7.15;4.20;;;1.00;55.40;;;-0.78;59.78;100999.72;12154083;19;20029;-83
2022/11/19 09:06:32;;;;;;;5.22;4.38;;;1.10;55.40;;;-0.73;59.84;100997.97;12156740;19;20014;-82
2022/11/19 09:10:36;;;;;;;5.57;4.03;;;1.20;55.50;;;-0.98;60.00;100944.25;12160275;19;20074;-82
2022/11/19 09:14:38;;;;;;;7.55;3.97;;;1.30;55.50;;;-0.51;59.98;100994.47;12153268;19;20898;-81
2022/11/19 09:18:41;;;;;;;4.18;3.50;;;1.50;55.50;;;-0.52;59.94;100971.38;12161798;19;20416;-82
2022/11/19 09:22:42;;;;;;;4.15;3.58;;;1.60;55.60;;;-0.16;59.95;101001.09;12156471;19;20847;-82
2022/11/19 09:26:44;;;;;;;4.60;3.50;;;1.80;55.60;;;0.01;59.97;101007.81;12157115;19;20381;-83
2022/11/19 09:30:57;;;;;;;5.60;3.45;;;1.80;55.50;;;0.10;59.98;101012.88;12166186;19;20042;-83
2022/11/19 09:34:59;;;;;;;5.65;3.95;;;1.90;55.40;;;0.21;60.14;101021.34;12152900;19;20022;-82
2022/11/19 09:39:02;;;;;;;4.05;3.50;;;2.10;55.40;;;0.33;60.09;101020.41;12160963;19;20007;-82
2022/11/19 09:43:26;;;;;;;4.20;3.30;;;2.20;55.30;;;0.36;60.21;101013.53;12147886;19;20293;-82
2022/11/19 09:47:46;;;;;;;4.43;2.88;;;2.30;55.20;;;0.55;59.97;101026.22;12163499;19;20059;-83
2022/11/19 09:51:58;;;;;;;5.95;3.42;;;2.40;55.10;;;0.58;60.04;101015.91;12163814;19;20026;-83
2022/11/19 09:55:59;;;;;;;4.57;3.45;;;2.80;55.30;;;0.61;60.01;101003.88;11980317;19;3384170;-81
2022/11/19 10:00:08;;;;;;;3.42;3.13;;;2.60;55.10;;;0.77;60.14;101022.56;12158898;19;20579;-82
2022/11/19 10:04:23;;;;;;;4.07;2.97;;;2.70;55.00;;;0.90;60.09;101002.72;12157828;19;20014;-82
2022/11/19 10:08:49;;;;;;;3.88;3.00;;;2.80;55.00;;;1.01;59.91;101006.03;12162547;19;20366;-82
2022/11/19 10:13:42;;;;;;;4.20;3.33;;;2.90;54.90;;;0.96;60.17;100982.09;12163165;19;20256;-82
2022/11/19 10:18:46;;;;;;;4.70;2.95;;;3.00;54.80;;;1.01;59.96;100964.03;12158120;19;20011;-82
2022/11/19 10:23:16;;;;;;;3.50;3.13;;;3.20;54.70;;;1.28;60.08;100991.13;12144931;19;20286;-84
2022/11/19 10:27:39;;;;;;;3.58;2.65;;;3.10;54.60;;;1.35;59.95;100981.59;12165299;19;21302;-86
2022/11/19 10:31:49;;;;;;;3.28;2.60;;;3.20;54.60;;;1.39;59.99;100971.25;12180878;19;20333;-87
2022/11/19 10:36:01;;;;;;;3.45;2.95;;;3.20;54.50;;;1.42;59.96;100950.63;12172315;19;20022;-86
2022/11/19 10:40:20;;;;;;;3.45;2.80;;;3.60;54.70;;;1.42;59.82;100930.06;12176494;19;20025;-86
2022/11/19 10:44:48;;;;;;;3.78;2.63;;;3.40;54.50;;;1.56;59.77;100947.88;12164497;19;20486;-84
2022/11/19 10:48:58;;;;;;;5.07;3.22;;;3.50;54.40;;;1.67;59.82;100945.97;12162037;19;20018;-86
2022/11/19 10:53:13;;;;;;;6.82;3.63;;;3.50;54.40;;;1.75;59.97;100944.13;12163132;19;20014;-86
2022/11/19 10:57:20;;;;;;;4.25;3.33;;;3.60;54.40;;;1.81;59.91;100929.47;12163914;19;20031;-86
2022/11/19 11:01:28;;;;;;;3.38;2.92;;;3.60;54.50;;;1.89;60.07;100923.34;12167060;19;20460;-86
2022/11/19 11:05:50;;;;;;;4.20;2.92;;;3.70;54.40;;;1.98;59.92;100924.91;12160398;19;20014;-85
2022/11/19 11:09:52;;;;;;;4.55;2.67;;;3.80;54.40;;;1.73;59.91;100867.84;12162964;19;20015;-86
2022/11/19 11:18:30;;;;;;;3.58;2.70;;;4.00;54.40;;;2.21;59.77;100916.78;12160855;19;20015;-85
2022/11/19 11:22:34;;;;;;;3.50;2.45;;;4.00;54.20;;;2.38;59.88;100924.22;12164010;19;20018;-87
2022/11/19 11:26:36;;;;;;;4.68;2.55;;;4.20;54.20;;;2.16;59.95;100864.47;12164677;19;20018;-85
2022/11/19 11:31:02;;;;;;;3.17;2.60;;;4.20;54.20;;;2.54;59.96;100914.47;12178676;19;20396;-85
2022/11/19 11:35:25;;;;;;;3.03;2.22;;;4.30;54.00;;;2.63;59.96;100911.72;12171519;19;20015;-84
2022/11/19 11:39:37;;;;;;;2.28;2.00;;;4.30;54.00;;;2.59;59.63;100880.00;12178331;19;20671;-84
2022/11/19 11:44:00;;;;;;;3.08;2.70;;;4.50;54.00;;;2.71;59.71;100875.47;12170024;19;20030;-84
2022/11/19 11:48:15;;;;;;;2.72;2.47;;;4.50;53.40;;;2.78;59.64;100877.03;12178107;19;20022;-85
2022/11/19 11:52:42;;;;;;;4.43;2.70;;;4.60;53.40;;;2.92;59.56;100890.50;12174644;19;20023;-85
2022/11/19 11:56:45;;;;;;;3.97;2.88;;;4.70;53.50;;;2.98;59.49;100874.06;12175088;19;20766;-85
2022/11/19 12:00:46;;;;;;;2.92;2.42;;;4.70;53.50;;;2.91;59.55;100857.84;12170694;19;20271;-86
2022/11/19 12:04:50;;;;;;;3.13;2.42;;;4.80;53.30;;;2.96;59.54;100870.66;12169859;19;20032;-85
2022/11/19 12:09:19;;;;;;;3.17;2.80;;;4.80;53.10;;;3.01;59.39;100874.81;12172384;19;20023;-84
2022/11/19 12:14:02;;;;;;;3.67;1.98;;;4.80;53.10;;;3.01;59.58;100873.97;12168440;19;20044;-84
2022/11/19 12:18:52;;;;;;;2.33;2.13;;;4.80;53.00;;;3.08;59.62;100878.97;12164112;19;20039;-84
2022/11/19 12:23:36;;;;;;;2.38;2.05;;;4.80;53.00;;;2.99;59.44;100858.53;12168243;19;20021;-83
2022/11/19 12:27:47;;;;;;;2.30;2.03;;;4.90;52.80;;;3.20;59.44;100895.91;12168560;19;21596;-85
2022/11/19 12:32:17;;;;;;;2.13;1.92;;;4.90;53.10;;;3.26;59.38;100889.75;12171446;19;20066;-84
2022/11/19 12:36:24;;;;;;;3.78;2.80;;;5.00;52.90;;;3.35;59.50;100879.25;12167374;19;20566;-84
2022/11/19 12:40:49;;;;;;;3.13;2.38;;;5.00;53.00;;;3.44;59.46;100873.03;12167234;19;20022;-84
2022/11/19 12:45:09;;;;;;;2.63;2.30;;;5.10;52.80;;;3.52;59.29;100868.53;12174852;19;20927;-84
2022/11/19 12:49:43;;;;;;;2.80;2.20;;;5.20;53.00;;;3.58;59.32;100870.09;12175093;19;20516;-84
2022/11/19 12:54:06;;;;;;;3.13;2.47;;;5.30;52.90;;;3.62;59.30;100869.13;12174416;19;20356;-84
2022/11/19 12:59:06;;;;;;;2.95;2.33;;;5.50;53.00;;;3.64;59.02;100880.28;12177793;19;20025;-84
2022/11/19 13:03:20;;;;;;;2.00;1.90;;;5.40;52.90;;;3.65;59.24;100866.50;12175128;19;20287;-84
2022/11/19 13:07:30;;;;;;;2.60;2.05;;;5.40;52.90;;;3.38;59.19;100813.81;12178690;19;20011;-83
2022/11/19 13:11:52;;;;;;;2.30;1.90;;;5.40;53.00;;;3.66;59.03;100850.13;12180692;19;20587;-83
2022/11/19 13:16:03;;;;;;;2.35;1.98;;;5.40;52.90;;;3.77;59.21;100866.19;12178149;19;20279;-84
2022/11/19 13:20:20;;;;;;;2.40;2.15;;;5.50;53.00;;;3.77;59.17;100848.09;12176829;19;20023;-83
2022/11/19 13:24:41;;;;;;;2.78;2.40;;;5.40;53.00;;;3.76;59.12;100851.59;12175231;19;20642;-83
2022/11/19 13:29:25;;;;;;;4.00;2.45;;;5.50;53.10;;;3.81;59.05;100854.03;12167282;19;20029;-82
2022/11/19 13:33:39;;;;;;;2.28;2.05;;;5.50;53.20;;;3.74;59.08;100840.44;12173718;19;20418;-83
2022/11/19 13:37:59;;;;;;;3.50;2.67;;;5.50;53.40;;;3.84;59.03;100847.06;12173278;19;20775;-83
2022/11/19 13:46:42;;;;;;;2.95;2.35;;;5.50;53.60;;;3.81;58.85;100830.78;12173975;19;20113;-82
2022/11/19 13:50:47;;;;;;;3.67;2.88;;;5.50;53.70;;;3.88;59.26;100837.50;12176046;19;20010;-83
2022/11/19 13:54:49;;;;;;;;;;;5.70;53.70;;;3.88;59.17;100835.75;12176250;19;20804;-84
2022/11/19 13:58:54;;;;;;;2.88;1.88;;;5.60;53.80;;;3.87;58.99;100831.50;12175233;19;20006;-82
2022/11/19 14:03:37;;;;;;;2.50;2.08;;;5.60;53.70;;;3.98;59.02;100842.41;12168156;19;20030;-83
2022/11/19 14:08:03;;;;;;;3.97;2.63;;;5.60;53.60;;;4.02;59.07;100844.91;12173662;19;20629;-83
2022/11/19 14:12:54;;;;;;;3.20;2.83;;;5.60;53.60;;;4.02;58.85;100847.47;12178612;19;20019;-84
2022/11/19 14:27:16;;;;;;;2.45;2.20;;;5.60;53.60;;;4.02;59.00;100855.22;12172786;19;20054;-84
2022/11/19 14:31:20;;;;;;;4.78;2.33;;;5.70;53.80;;;3.68;59.15;100794.97;12176602;19;20011;-84
2022/11/19 14:35:31;;;;;;;3.40;2.88;;;5.70;53.80;;;4.05;59.09;100850.84;12167893;19;20436;-83
2022/11/19 14:39:42;;;;;;;2.67;2.20;;;5.90;53.90;;;4.01;58.98;100836.31;12173234;19;20042;-83
2022/11/19 14:44:08;;;;;;;2.97;2.45;;;5.70;53.80;;;4.10;59.02;100842.94;12168557;19;20024;-83
2022/11/19 14:48:10;;;;;;;3.92;3.08;;;5.70;53.70;;;3.88;59.01;100809.09;12176149;19;20018;-84
2022/11/19 14:52:32;;;;;;;3.22;2.53;;;5.90;53.90;;;4.03;58.94;100834.53;12175759;19;20397;-84
2022/11/19 14:56:36;;;;;;;4.28;3.40;;;5.60;53.70;;;4.10;58.97;100842.94;12174338;19;20021;-84
2022/11/19 15:00:41;;;;;;;4.30;2.80;;;5.70;53.80;;;4.06;59.01;100846.53;12173578;19;20042;-84
2022/11/19 15:05:13;;;;;;;3.13;2.83;;;5.70;53.80;;;4.09;58.93;100852.44;12166062;19;20609;-84
2022/11/19 15:10:08;;;;;;;3.60;2.78;;;5.70;53.80;;;4.09;58.85;100854.19;12169106;19;20286;-84
2022/11/19 15:14:28;;;;;;;3.80;2.95;;;5.70;54.00;;;4.06;58.91;100847.38;12170197;19;20029;-84
2022/11/19 15:18:39;;;;;;;3.03;2.45;;;5.80;54.20;;;4.08;58.96;100848.19;12174903;19;20560;-84
2022/11/19 15:23:04;;;;;;;4.30;3.40;;;5.60;54.20;;;4.09;58.86;100846.44;12169810;19;20760;-85
2022/11/19 15:27:51;;;;;;;;;;;5.60;54.40;;;4.05;58.92;100845.69;12173367;19;20010;-84
2022/11/19 15:32:27;;;;;;;3.45;2.60;;;5.60;54.40;;;4.02;58.80;100839.72;12160452;19;20202;-84
2022/11/19 15:36:43;;;;;;;3.90;2.83;;;5.60;54.50;;;3.94;59.07;100832.16;12166681;19;20614;-84
2022/11/19 15:40:46;;;;;;;3.53;3.08;;;5.50;54.60;;;3.89;58.83;100832.31;12167752;19;20018;-84
2022/11/19 15:45:22;;;;;;;3.85;3.05;;;5.50;54.80;;;3.82;58.84;100814.41;12168453;19;20124;-84
2022/11/19 15:49:27;;;;;;;4.00;2.80;;;5.40;54.90;;;3.80;58.82;100804.13;12167152;19;20015;-84
2022/11/19 15:53:29;;;;;;;;;;;5.40;54.90;;;3.84;58.81;100825.56;12168102;19;20025;-84
2022/11/19 15:57:30;;;;;;;3.00;2.70;;;5.40;54.90;;;3.85;59.10;100827.25;12171313;19;20798;-84
2022/11/19 16:01:33;;;;;;;2.88;2.58;;;5.40;55.00;;;3.71;58.81;100807.78;12168610;19;20406;-83
2022/11/19 16:05:35;;;;;;;3.42;3.13;;;5.30;55.10;;;3.77;59.01;100819.69;12167813;19;20512;-82
2022/11/19 16:09:37;;;;;;;3.10;2.80;;;5.40;55.20;;;3.77;59.13;100814.53;12170689;19;20022;-82
2022/11/19 16:17:59;;;;;;;2.50;2.30;;;5.40;55.40;;;3.73;59.00;100818.94;12181928;19;20041;-82
2022/11/19 16:22:03;;;;;;;3.72;2.95;;;5.20;55.40;;;3.60;58.99;100791.72;12168035;19;21116;-83
2022/11/19 16:26:05;;;;;;;6.32;4.35;;;5.20;55.40;;;3.71;59.13;100807.78;12160125;19;20022;-83
2022/11/19 16:30:20;;;;;;;9.13;4.65;;;5.30;55.50;;;3.69;59.05;100799.22;12165528;19;20018;-82
2022/11/19 16:34:23;;;;;;;19.38;8.18;;;5.20;55.50;;;3.76;59.21;100807.69;12173130;19;20291;-83
2022/11/19 16:38:28;;;;;;;13.45;6.57;;;5.20;55.50;;;3.78;59.23;100811.09;12174014;19;20044;-82
2022/11/19 16:42:31;;;;;;;9.37;4.70;;;5.20;55.50;;;3.54;59.09;100776.41;12171739;19;20791;-83
2022/11/19 16:46:34;;;;;;;6.78;4.50;;;5.20;55.50;;;3.65;58.98;100799.38;12169708;19;20308;-83
2022/11/19 16:50:36;;;;;;;5.68;3.97;;;5.20;55.90;;;3.72;59.00;100806.06;12168875;19;20506;-83
2022/11/19 16:54:49;;;;;;;6.78;4.38;;;5.40;55.70;;;3.73;59.24;100818.09;12171377;19;20021;-83
2022/11/19 16:59:00;;;;;;;5.22;3.80;;;5.20;55.70;;;3.43;59.11;100778.38;12177615;19;20046;-83
2022/11/19 17:03:35;;;;;;;4.70;3.65;;;5.20;55.70;;;3.55;58.98;100803.91;12173123;19;20019;-82
2022/11/19 17:07:38;;;;;;;4.03;3.03;;;5.10;55.70;;;3.68;59.15;100820.78;12173663;19;20894;-82
2022/11/19 17:16:22;;;;;;;4.18;3.58;;;5.10;55.80;;;3.66;59.11;100812.22;12174785;19;20801;-82
2022/11/19 17:20:28;;;;;;;4.60;3.40;;;5.10;55.80;;;3.71;59.39;100812.13;12179658;19;20014;-82
2022/11/19 17:24:45;;;;;;;4.03;3.17;;;5.10;55.80;;;3.65;59.13;100801.94;12173592;19;20010;-82
2022/11/19 17:28:50;;;;;;;4.43;3.42;;;5.10;55.80;;;3.58;59.16;100801.25;12174764;19;20655;-83
2022/11/19 17:33:01;;;;;;;5.10;4.05;;;5.10;55.80;;;3.70;59.40;100818.16;12166249;19;20509;-82
2022/11/19 17:37:08;;;;;;;3.38;3.08;;;5.10;55.80;;;3.70;59.26;100828.47;12158050;19;20827;-83
2022/11/19 17:41:14;;;;;;;4.90;3.47;;;5.10;55.80;;;3.63;59.24;100812.31;12163287;19;20011;-83
2022/11/19 17:45:16;;;;;;;4.13;3.72;;;5.10;55.80;;;3.68;59.35;100819.94;12166554;19;20023;-83
2022/11/19 17:49:18;;;;;;;4.45;3.38;;;5.20;56.00;;;3.65;59.15;100804.53;12172174;19;20428;-81
2022/11/19 17:53:21;;;;;;;5.28;3.53;;;5.10;55.90;;;3.42;59.32;100777.53;12168172;19;20086;-82
2022/11/19 17:57:23;;;;;;;4.80;3.78;;;5.10;55.90;;;3.69;59.47;100824.22;12170542;19;20368;-83
2022/11/19 18:01:26;;;;;;;6.13;3.97;;;5.20;56.00;;;3.65;59.33;100800.22;12166625;19;20117;-83
2022/11/19 18:05:33;;;;;;;4.55;3.45;;;5.10;56.00;;;3.69;59.40;100822.47;12173976;19;20054;-81